Time;durP1;ratioP1;P1;durP2;ratioP2;P2;SDS_P1;SDS_P2;PMS_P1;PMS_P2;Temp;Humidity;BMP_temperature;BMP_pressure;BME280_temperature;BME280_humidity;BME280_pressure;Samples;Min_cycle;Max_cycle;Signal;HPM_P1;HPM_P2
2022/04/23 00:01:36;;;;;;;;;58.50;47.00;25.60;99.90;;;;;;5059885;28;8743;-65
2022/04/23 00:04:05;;;;;;;;;62.50;47.75;25.60;99.90;;;;;;5060721;28;9523;-65
2022/04/23 00:06:32;;;;;;;;;55.25;45.00;25.70;99.90;;;;;;5059262;28;8795;-65
2022/04/23 00:08:58;;;;;;;;;59.25;47.00;25.70;99.90;;;;;;5059837;28;8770;-65
2022/04/23 00:11:25;;;;;;;;;53.00;44.00;25.80;99.90;;;;;;5041979;28;8782;-65
2022/04/23 00:13:52;;;;;;;;;56.75;44.25;25.80;99.90;;;;;;5059762;28;8869;-65
2022/04/23 00:16:19;;;;;;;;;57.00;44.50;25.80;99.90;;;;;;5060197;28;8810;-60
2022/04/23 00:18:46;;;;;;;;;55.00;44.75;25.80;99.90;;;;;;5026131;28;8901;-65
2022/04/23 00:21:13;;;;;;;;;64.50;49.00;25.90;99.90;;;;;;5059864;28;8778;-65
2022/04/23 00:23:40;;;;;;;;;56.50;44.75;26.00;99.90;;;;;;5059579;28;8774;-65
2022/04/23 00:26:07;;;;;;;;;58.00;47.25;26.00;99.90;;;;;;5059305;28;8742;-65
2022/04/23 00:28:33;;;;;;;;;48.00;41.25;26.10;99.90;;;;;;5041570;28;8906;-65
2022/04/23 00:31:00;;;;;;;;;58.25;43.75;26.20;99.90;;;;;;5060477;28;8834;-65
2022/04/23 00:33:30;;;;;;;;;58.50;46.00;26.10;99.90;;;;;;5059223;28;8798;-65
2022/04/23 00:35:57;;;;;;;;;59.00;46.75;26.20;99.90;;;;;;5041370;28;8779;-65
2022/04/23 00:38:24;;;;;;;;;56.75;45.00;26.30;99.90;;;;;;5059369;28;9400;-64
2022/04/23 00:40:51;;;;;;;;;52.25;42.25;26.30;99.90;;;;;;5059427;28;8869;-65
2022/04/23 00:43:28;;;;;;;;;53.75;42.25;26.30;99.90;;;;;;5059761;28;8841;-64
2022/04/23 00:45:55;;;;;;;;;49.75;42.00;26.30;99.90;;;;;;5058379;28;8758;-65
2022/04/23 00:48:24;;;;;;;;;60.75;45.25;26.40;99.90;;;;;;5059000;28;8778;-64
2022/04/23 00:50:52;;;;;;;;;51.25;41.75;26.40;99.90;;;;;;5041421;28;8784;-65
2022/04/23 00:53:20;;;;;;;;;53.25;43.00;26.40;99.90;;;;;;5047884;28;8798;-63
2022/04/23 00:55:47;;;;;;;;;59.50;46.00;26.40;99.90;;;;;;5041224;28;8771;-65
2022/04/23 00:58:17;;;;;;;;;51.50;41.00;26.40;99.90;;;;;;5059376;28;8755;-65
2022/04/23 01:00:47;;;;;;;;;59.50;46.00;26.50;99.90;;;;;;5041064;28;9380;-65
2022/04/23 01:03:14;;;;;;;;;54.75;44.25;26.50;99.90;;;;;;5040399;28;8774;-64
2022/04/23 01:05:47;;;;;;;;;57.50;46.00;26.60;99.90;;;;;;5058723;28;8782;-64
2022/04/23 01:08:15;;;;;;;;;51.50;40.75;26.60;99.90;;;;;;5040716;28;8863;-64
2022/04/23 01:10:44;;;;;;;;;55.50;44.50;26.60;99.90;;;;;;5041138;28;8762;-65
2022/04/23 01:13:14;;;;;;;;;54.75;43.75;26.60;99.90;;;;;;5059258;28;8775;-65
2022/04/23 01:16:02;;;;;;;;;51.25;42.75;26.70;99.90;;;;;;5056872;28;8763;-64
2022/04/23 01:18:29;;;;;;;;;52.50;43.25;26.70;99.90;;;;;;5058369;28;8771;-64
2022/04/23 01:20:57;;;;;;;;;57.75;45.00;26.80;99.90;;;;;;5041103;28;8897;-65
2022/04/23 01:23:26;;;;;;;;;55.25;42.25;26.80;99.90;;;;;;5058008;28;8755;-64
2022/04/23 01:25:55;;;;;;;;;45.00;39.00;26.80;99.90;;;;;;5058427;28;9068;-64
2022/04/23 01:28:23;;;;;;;;;52.25;41.50;26.80;99.90;;;;;;5058755;28;8750;-64
2022/04/23 01:30:50;;;;;;;;;52.50;41.75;26.90;99.90;;;;;;5058887;28;8735;-64
2022/04/23 01:33:17;;;;;;;;;54.25;43.75;26.90;99.90;;;;;;5058163;28;8770;-63
2022/04/23 01:35:44;;;;;;;;;48.50;39.00;26.90;99.90;;;;;;5058417;28;8786;-64
2022/04/23 01:38:11;;;;;;;;;54.50;41.75;26.90;99.90;;;;;;5058199;28;8929;-65
2022/04/23 01:40:38;;;;;;;;;53.75;41.75;27.00;99.90;;;;;;5040363;28;8770;-64
2022/04/23 01:43:05;;;;;;;;;54.25;43.50;27.10;99.90;;;;;;5041158;28;8758;-64
2022/04/23 01:45:32;;;;;;;;;52.50;42.25;27.10;99.90;;;;;;5057836;28;8771;-64
2022/04/23 01:47:58;;;;;;;;;53.25;44.50;27.10;99.90;;;;;;5040541;28;9445;-65
2022/04/23 01:50:25;;;;;;;;;45.50;38.00;27.10;99.90;;;;;;5057863;28;9474;-64
2022/04/23 01:52:52;;;;;;;;;52.50;40.00;27.20;99.90;;;;;;5057954;28;8805;-65
2022/04/23 01:55:19;;;;;;;;;46.75;38.00;27.20;99.90;;;;;;5058337;28;8763;-64
2022/04/23 01:57:45;;;;;;;;;45.25;38.00;27.20;99.90;;;;;;5058134;28;8734;-65
2022/04/23 02:00:15;;;;;;;;;50.75;39.25;27.20;99.90;;;;;;5057823;28;8769;-65
2022/04/23 02:02:46;;;;;;;;;51.00;41.50;27.30;99.90;;;;;;5057860;28;8751;-65
2022/04/23 02:05:13;;;;;;;;;46.50;37.25;27.40;99.90;;;;;;5057655;28;8759;-65
2022/04/23 02:07:40;;;;;;;;;46.50;39.00;27.40;99.90;;;;;;5057422;28;8797;-65
2022/04/23 02:10:08;;;;;;;;;44.75;36.75;27.50;99.90;;;;;;5023814;28;8766;-65
2022/04/23 02:12:36;;;;;;;;;49.75;40.75;27.50;99.90;;;;;;5039803;28;8751;-65
2022/04/23 02:15:02;;;;;;;;;48.00;38.50;27.60;99.90;;;;;;5035129;28;8792;-65
2022/04/23 02:17:39;;;;;;;;;44.50;37.50;27.60;99.90;;;;;;5037643;28;8733;-65
2022/04/23 02:20:10;;;;;;;;;51.75;40.00;27.70;99.90;;;;;;5036522;28;8744;-65
2022/04/23 02:22:37;;;;;;;;;54.75;43.00;27.60;99.90;;;;;;5037301;28;8987;-65
2022/04/23 02:25:05;;;;;;;;;53.75;41.75;27.70;99.90;;;;;;5036988;28;8756;-65
2022/04/23 02:27:45;;;;;;;;;62.00;47.75;27.70;99.90;;;;;;5037361;28;8790;-65
2022/04/23 02:30:13;;;;;;;;;56.75;45.25;27.70;99.90;;;;;;5037601;28;8761;-65
2022/04/23 02:32:41;;;;;;;;;52.25;41.50;27.70;99.90;;;;;;5037543;28;8748;-65
2022/04/23 02:35:09;;;;;;;;;52.75;42.75;27.80;99.90;;;;;;5036095;28;8804;-65
2022/04/23 02:37:35;;;;;;;;;50.00;39.75;27.90;99.90;;;;;;5036958;28;8725;-65
2022/04/23 02:40:06;;;;;;;;;51.25;42.00;27.80;99.90;;;;;;5036366;28;8812;-65
2022/04/23 02:42:41;;;;;;;;;50.25;40.50;28.00;99.90;;;;;;5036922;28;8740;-65
2022/04/23 02:45:09;;;;;;;;;47.50;38.50;28.00;99.90;;;;;;5037159;28;9264;-65
2022/04/23 02:47:52;;;;;;;;;47.25;37.25;28.20;99.90;;;;;;5035629;28;8756;-65
2022/04/23 02:50:33;;;;;;;;;47.75;39.50;28.10;99.90;;;;;;5037022;28;8783;-64
2022/04/23 02:52:59;;;;;;;;;51.75;40.25;28.20;99.90;;;;;;5035843;28;8753;-65
2022/04/23 02:55:28;;;;;;;;;50.50;41.25;28.30;99.90;;;;;;5035601;28;8763;-64
2022/04/23 02:57:57;;;;;;;;;55.00;43.00;28.20;99.90;;;;;;5037668;28;8753;-65
2022/04/23 03:00:24;;;;;;;;;50.50;39.00;28.20;99.90;;;;;;5035650;28;8740;-65
2022/04/23 03:02:52;;;;;;;;;49.25;39.75;28.30;99.90;;;;;;5028746;28;8818;-65
2022/04/23 03:05:19;;;;;;;;;51.00;39.50;28.30;99.90;;;;;;5036590;28;8760;-64
2022/04/23 03:07:45;;;;;;;;;47.00;39.00;28.30;99.90;;;;;;5035528;28;8899;-65
2022/04/23 03:10:13;;;;;;;;;50.50;41.00;28.40;99.90;;;;;;5037371;28;8756;-65
2022/04/23 03:12:40;;;;;;;;;49.50;42.00;28.50;99.90;;;;;;5036618;28;8748;-65
2022/04/23 03:15:08;;;;;;;;;51.75;43.00;28.60;99.90;;;;;;5043780;28;8766;-65
2022/04/23 03:17:35;;;;;;;;;52.00;40.75;28.80;99.90;;;;;;5054952;28;8763;-65
2022/04/23 03:20:02;;;;;;;;;52.75;41.00;28.60;99.90;;;;;;5038280;28;8751;-65
2022/04/23 03:22:28;;;;;;;;;47.50;38.50;28.80;99.90;;;;;;5055326;28;8881;-64
2022/04/23 03:24:55;;;;;;;;;47.00;38.50;28.90;99.90;;;;;;5039774;28;8765;-65
2022/04/23 03:27:22;;;;;;;;;46.50;38.75;28.90;99.90;;;;;;5055996;28;8743;-65
2022/04/23 03:29:49;;;;;;;;;46.75;38.50;28.80;99.90;;;;;;5029800;28;8746;-65
2022/04/23 03:32:15;;;;;;;;;40.75;34.50;28.90;99.90;;;;;;5056503;28;8766;-65
2022/04/23 03:34:42;;;;;;;;;50.00;39.00;28.90;99.90;;;;;;5056362;28;8743;-66
2022/04/23 03:37:09;;;;;;;;;48.25;38.50;28.90;99.90;;;;;;5056712;28;8707;-65
2022/04/23 03:39:36;;;;;;;;;47.50;36.00;29.00;99.90;;;;;;5056123;28;8747;-65
2022/04/23 03:42:03;;;;;;;;;47.25;37.50;28.90;99.90;;;;;;5056323;28;8722;-65
2022/04/23 03:44:31;;;;;;;;;45.75;36.00;29.00;99.90;;;;;;5056113;28;8715;-65
2022/04/23 03:47:07;;;;;;;;;42.50;35.75;29.30;99.90;;;;;;5056391;28;8811;-65
2022/04/23 03:49:33;;;;;;;;;45.00;35.25;29.30;99.90;;;;;;5056062;28;8735;-65
2022/04/23 03:52:00;;;;;;;;;44.50;36.50;29.10;99.90;;;;;;5039068;28;8747;-65
2022/04/23 03:54:27;;;;;;;;;44.50;36.25;29.50;99.90;;;;;;5056064;28;8711;-65
2022/04/23 03:56:53;;;;;;;;;41.25;35.00;29.40;99.90;;;;;;5056184;28;8813;-65
2022/04/23 03:59:23;;;;;;;;;43.00;35.75;29.40;99.90;;;;;;5056085;28;8774;-64
2022/04/23 04:01:55;;;;;;;;;47.50;37.75;29.30;99.90;;;;;;5056199;28;8763;-65
2022/04/23 04:04:22;;;;;;;;;45.50;37.25;29.40;99.90;;;;;;5039494;28;8785;-65
2022/04/23 04:06:49;;;;;;;;;48.50;37.25;29.40;99.90;;;;;;5024442;28;8808;-65
2022/04/23 04:09:15;;;;;;;;;41.00;34.50;29.50;99.90;;;;;;5036024;28;8773;-65
2022/04/23 04:14:30;;;;;;;;;39.25;33.75;29.30;99.90;;;;;;5035355;28;9469;-65
2022/04/23 04:17:00;;;;;;;;;43.75;36.75;29.70;99.90;;;;;;5032317;28;9050;-65
2022/04/23 04:19:27;;;;;;;;;45.00;37.00;29.80;99.90;;;;;;5018203;28;8738;-65
2022/04/23 04:21:54;;;;;;;;;41.25;34.00;29.70;99.90;;;;;;5043624;28;8748;-65
2022/04/23 04:24:21;;;;;;;;;44.75;35.75;29.80;99.90;;;;;;5055373;28;8793;-64
2022/04/23 04:26:47;;;;;;;;;45.00;37.00;29.80;99.90;;;;;;5056046;28;8763;-65
2022/04/23 04:29:14;;;;;;;;;42.25;35.75;29.90;99.90;;;;;;5055943;28;8857;-65
2022/04/23 04:31:47;;;;;;;;;48.50;38.00;30.00;99.90;;;;;;5055885;28;8869;-65
2022/04/23 04:34:15;;;;;;;;;48.25;37.50;30.10;99.90;;;;;;5056419;28;8806;-65
2022/04/23 04:36:41;;;;;;;;;46.00;36.00;30.20;99.90;;;;;;5037638;28;8771;-65
2022/04/23 04:39:08;;;;;;;;;39.50;30.75;30.40;99.90;;;;;;5057787;28;10153;-64
2022/04/23 04:41:35;;;;;;;;;46.00;37.00;30.20;99.90;;;;;;5059636;28;9431;-65
2022/04/23 04:44:03;;;;;;;;;42.75;35.00;30.10;99.90;;;;;;5059747;28;8755;-65
2022/04/23 04:46:29;;;;;;;;;38.25;32.00;30.10;99.90;;;;;;5041503;28;8782;-65
2022/04/23 04:48:56;;;;;;;;;46.50;35.00;30.10;99.90;;;;;;5048485;28;8775;-65
2022/04/23 04:51:23;;;;;;;;;45.50;35.50;30.50;99.90;;;;;;5058753;28;9407;-64
2022/04/23 04:53:51;;;;;;;;;43.25;35.50;30.40;99.90;;;;;;5059182;28;8763;-65
2022/04/23 04:56:18;;;;;;;;;43.25;35.50;30.40;99.90;;;;;;5058897;28;8803;-64
2022/04/23 04:58:46;;;;;;;;;43.75;33.00;30.40;99.90;;;;;;5059046;28;8810;-65
2022/04/23 05:01:13;;;;;;;;;48.75;38.75;30.30;99.90;;;;;;5041557;28;8763;-65
2022/04/23 05:03:40;;;;;;;;;43.50;35.00;30.40;99.90;;;;;;5041227;28;8751;-65
2022/04/23 05:06:12;;;;;;;;;43.75;34.50;30.50;99.90;;;;;;5041304;28;8755;-65
2022/04/23 05:08:39;;;;;;;;;46.25;35.00;30.70;99.90;;;;;;5058628;28;9125;-64
2022/04/23 05:11:06;;;;;;;;;42.50;34.50;30.90;99.90;;;;;;5058857;28;8755;-65
2022/04/23 05:13:33;;;;;;;;;40.50;33.25;30.70;99.90;;;;;;5058482;28;8798;-64
2022/04/23 05:16:00;;;;;;;;;42.25;35.50;30.80;99.90;;;;;;5058896;28;8763;-65
2022/04/23 05:18:27;;;;;;;;;40.50;32.50;30.70;99.90;;;;;;5058402;28;8783;-65
2022/04/23 05:20:53;;;;;;;;;40.50;34.75;30.80;99.90;;;;;;5058886;28;8782;-65
2022/04/23 05:23:20;;;;;;;;;39.25;35.00;30.80;99.90;;;;;;5058222;28;8759;-63
2022/04/23 05:25:47;;;;;;;;;39.25;34.75;31.00;99.90;;;;;;5040997;28;8770;-65
2022/04/23 05:28:13;;;;;;;;;44.50;34.25;30.90;99.90;;;;;;5059216;28;8771;-65
2022/04/23 05:30:40;;;;;;;;;39.00;34.00;30.90;99.90;;;;;;5058488;28;9410;-65
2022/04/23 05:33:07;;;;;;;;;43.00;34.75;31.10;99.90;;;;;;5041004;28;8831;-65
2022/04/23 05:35:34;;;;;;;;;37.50;34.25;31.10;99.90;;;;;;5040472;28;8922;-65
2022/04/23 05:38:01;;;;;;;;;44.50;36.25;30.90;99.90;;;;;;5058292;28;8767;-65
2022/04/23 05:40:27;;;;;;;;;44.75;36.75;31.10;99.90;;;;;;5023680;28;8739;-65
2022/04/23 05:42:57;;;;;;;;;39.75;32.25;31.00;99.90;;;;;;5041293;28;8747;-65
2022/04/23 05:45:25;;;;;;;;;43.75;36.25;31.10;99.90;;;;;;5041013;28;8774;-64
2022/04/23 05:47:51;;;;;;;;;36.00;29.25;31.20;99.90;;;;;;5058302;28;8747;-65
2022/04/23 05:50:18;;;;;;;;;45.00;37.50;30.90;99.90;;;;;;5057653;28;8803;-64
2022/04/23 05:52:45;;;;;;;;;40.25;33.50;31.10;99.90;;;;;;5040052;28;8815;-65
2022/04/23 05:55:11;;;;;;;;;42.75;33.00;31.10;99.90;;;;;;5058623;28;8754;-65
2022/04/23 05:57:38;;;;;;;;;40.50;33.75;31.10;99.90;;;;;;5057464;28;8762;-65
2022/04/23 06:00:06;;;;;;;;;43.50;33.50;31.50;99.90;;;;;;5058058;28;9388;-65
2022/04/23 06:02:33;;;;;;;;;43.00;35.00;31.20;99.90;;;;;;5057675;28;8775;-65
2022/04/23 06:04:59;;;;;;;;;40.25;33.75;31.30;99.90;;;;;;5057679;28;8797;-65
2022/04/23 06:07:26;;;;;;;;;41.00;33.75;31.20;99.90;;;;;;5057457;28;8739;-64
2022/04/23 06:09:53;;;;;;;;;44.75;34.50;31.20;99.90;;;;;;5040150;28;8774;-65
2022/04/23 06:12:19;;;;;;;;;44.00;33.00;31.20;99.90;;;;;;5057289;28;8751;-64
2022/04/23 06:14:46;;;;;;;;;33.75;28.75;31.40;99.90;;;;;;5057599;28;8899;-65
2022/04/23 06:17:13;;;;;;;;;35.75;31.25;31.50;99.90;;;;;;5057759;28;8854;-65
2022/04/23 06:19:40;;;;;;;;;41.75;31.50;31.40;99.90;;;;;;5040331;28;8853;-65
2022/04/23 06:22:10;;;;;;;;;37.50;31.25;31.90;99.90;;;;;;5058270;28;8771;-65
2022/04/23 06:24:36;;;;;;;;;38.50;32.25;32.00;99.90;;;;;;5057669;28;8833;-65
2022/04/23 06:27:03;;;;;;;;;39.00;33.75;31.80;99.90;;;;;;5057883;28;8797;-65
2022/04/23 06:29:30;;;;;;;;;31.75;28.50;31.80;99.90;;;;;;5040374;28;8772;-65
2022/04/23 06:31:57;;;;;;;;;39.50;31.00;31.90;99.90;;;;;;5057627;28;9396;-65
2022/04/23 06:34:23;;;;;;;;;41.00;33.25;32.00;99.90;;;;;;5058219;28;8751;-65
2022/04/23 06:36:50;;;;;;;;;41.25;33.00;32.40;99.90;;;;;;5058023;28;8770;-64
2022/04/23 06:39:17;;;;;;;;;41.50;33.00;32.30;99.90;;;;;;5057900;28;8763;-64
2022/04/23 06:41:43;;;;;;;;;35.25;31.25;32.10;99.90;;;;;;5039999;28;8773;-65
2022/04/23 06:44:13;;;;;;;;;40.25;34.00;32.00;99.70;;;;;;5057393;28;8771;-65
2022/04/23 06:46:39;;;;;;;;;37.00;31.50;32.00;99.90;;;;;;5056872;28;8869;-65
2022/04/23 06:49:06;;;;;;;;;37.50;32.50;31.90;99.90;;;;;;5057571;28;8751;-65
2022/04/23 06:51:33;;;;;;;;;36.50;32.75;31.90;99.90;;;;;;5056642;28;8784;-65
2022/04/23 06:54:00;;;;;;;;;36.00;31.75;32.00;99.90;;;;;;5039343;28;8762;-65
2022/04/23 06:56:27;;;;;;;;;36.25;32.75;32.10;99.70;;;;;;5056946;28;8775;-65
2022/04/23 06:58:54;;;;;;;;;28.25;23.50;32.40;98.70;;;;;;5056873;28;8790;-65
2022/04/23 07:01:21;;;;;;;;;35.25;30.75;32.40;97.90;;;;;;5038508;28;8727;-64
2022/04/23 07:03:47;;;;;;;;;40.25;35.25;32.40;97.40;;;;;;5056822;28;8754;-65
2022/04/23 07:06:16;;;;;;;;;33.50;30.75;32.40;98.60;;;;;;5038691;28;8787;-65
2022/04/23 07:08:45;;;;;;;;;35.50;32.50;32.70;97.20;;;;;;5056759;28;8893;-65
2022/04/23 07:11:12;;;;;;;;;41.50;32.00;32.60;96.40;;;;;;5056669;28;8754;-65
2022/04/23 07:13:38;;;;;;;;;38.75;33.25;32.30;96.60;;;;;;5056159;28;8783;-65
2022/04/23 07:16:09;;;;;;;;;38.50;32.25;32.30;98.00;;;;;;5057193;28;8782;-65
2022/04/23 07:18:39;;;;;;;;;35.75;32.50;32.70;95.90;;;;;;5056126;28;9526;-66
2022/04/23 07:21:06;;;;;;;;;36.75;30.75;32.70;96.10;;;;;;5039175;28;8755;-65
2022/04/23 07:26:17;;;;;;;;;35.75;32.00;32.80;96.40;;;;;;5056765;28;8752;-61
2022/04/23 07:28:44;;;;;;;;;41.25;33.75;32.70;97.10;;;;;;5022462;28;8727;-66
2022/04/23 07:31:11;;;;;;;;;35.75;29.50;32.90;96.20;;;;;;5057159;28;8773;-66
2022/04/23 07:39:07;;;;;;;;;40.25;32.50;33.20;96.20;;;;;;5041577;28;8751;-65
2022/04/23 07:41:34;;;;;;;;;40.75;33.25;32.80;96.20;;;;;;5056271;28;8813;-65
2022/04/23 07:44:00;;;;;;;;;37.75;32.00;32.40;96.20;;;;;;5056429;28;8798;-65
2022/04/23 07:46:27;;;;;;;;;38.25;31.75;32.40;96.10;;;;;;5038647;28;8821;-65
2022/04/23 07:48:54;;;;;;;;;39.75;32.00;32.40;96.20;;;;;;5057165;28;8769;-65
2022/04/23 07:51:20;;;;;;;;;33.00;30.50;33.00;95.30;;;;;;5056321;28;8817;-64
2022/04/23 07:53:48;;;;;;;;;36.50;29.00;32.90;95.70;;;;;;5056971;28;8797;-65
2022/04/23 07:56:16;;;;;;;;;38.75;32.00;32.90;94.80;;;;;;5056517;28;8775;-65
2022/04/23 07:58:43;;;;;;;;;35.00;30.25;32.80;94.80;;;;;;5056740;28;8716;-65
2022/04/23 08:01:10;;;;;;;;;41.25;32.00;32.90;94.70;;;;;;5058001;28;8761;-65
2022/04/23 08:03:36;;;;;;;;;30.50;26.25;32.90;95.20;;;;;;5056544;28;8809;-65
2022/04/23 08:06:03;;;;;;;;;35.25;30.00;33.20;95.00;;;;;;5056262;28;8747;-65
2022/04/23 08:08:30;;;;;;;;;33.50;30.25;33.20;94.60;;;;;;5036215;28;8758;-65
2022/04/23 08:10:57;;;;;;;;;38.50;30.00;33.20;93.50;;;;;;5036465;28;9077;-65
2022/04/23 08:13:26;;;;;;;;;32.50;29.25;33.30;92.50;;;;;;5020320;28;8900;-65
2022/04/23 08:15:53;;;;;;;;;33.00;29.00;33.30;92.30;;;;;;5040628;28;8761;-65
2022/04/23 08:18:19;;;;;;;;;36.25;30.00;32.80;92.30;;;;;;5039980;28;8875;-64
2022/04/23 08:20:47;;;;;;;;;38.75;31.00;32.90;92.30;;;;;;5022535;28;8757;-65
2022/04/23 08:23:15;;;;;;;;;32.00;29.25;33.20;91.80;;;;;;5057205;28;8778;-65
2022/04/23 08:25:43;;;;;;;;;29.75;28.75;32.80;92.80;;;;;;5041557;28;8758;-65
2022/04/23 08:30:54;;;;;;;;;39.75;29.50;33.40;91.80;;;;;;5079346;28;8753;-65
2022/04/23 08:33:21;;;;;;;;;38.25;31.25;33.40;92.50;;;;;;5060534;28;8745;-64
2022/04/23 08:35:47;;;;;;;;;35.25;28.50;33.40;91.30;;;;;;5070274;28;8814;-65
2022/04/23 08:38:16;;;;;;;;;30.00;27.50;33.20;91.50;;;;;;5050712;28;9058;-65
2022/04/23 08:40:46;;;;;;;;;31.00;26.75;32.90;92.50;;;;;;5039555;28;8851;-65
2022/04/23 08:43:13;;;;;;;;;39.50;31.75;33.10;91.30;;;;;;5040115;28;8882;-65
2022/04/23 08:45:39;;;;;;;;;33.50;28.75;33.40;92.50;;;;;;5039496;28;9971;-65
2022/04/23 08:48:14;;;;;;;;;33.75;30.25;33.40;93.20;;;;;;5039649;28;8761;-65
2022/04/23 08:50:41;;;;;;;;;27.75;23.50;33.40;91.30;;;;;;5039327;28;8879;-65
2022/04/23 08:53:13;;;;;;;;;32.50;29.00;33.30;91.50;;;;;;5038030;28;8795;-65
2022/04/23 08:55:44;;;;;;;;;33.25;25.00;33.40;91.50;;;;;;5046764;28;8762;-65
2022/04/23 08:58:12;;;;;;;;;37.25;30.75;33.30;91.40;;;;;;5039924;28;8736;-65
2022/04/23 09:00:41;;;;;;;;;37.25;31.25;33.20;91.50;;;;;;5038816;28;8761;-65
2022/04/23 09:03:17;;;;;;;;;33.25;30.25;33.10;90.60;;;;;;5021533;28;8749;-65
2022/04/23 09:05:44;;;;;;;;;35.50;30.00;33.00;93.10;;;;;;5038967;28;8741;-65
2022/04/23 09:08:11;;;;;;;;;34.50;30.25;33.00;93.70;;;;;;5021421;28;8753;-65
2022/04/23 09:10:48;;;;;;;;;34.00;30.75;33.00;93.20;;;;;;5038961;28;8758;-64
2022/04/23 09:13:27;;;;;;;;;28.00;25.50;33.00;91.40;;;;;;5039508;28;8788;-64
2022/04/23 09:24:49;;;;;;;;;28.00;26.50;33.10;92.50;;;;;;5078220;28;8899;-64
2022/04/23 09:27:16;;;;;;;;;30.50;28.25;33.10;90.60;;;;;;5060785;28;8752;-65
2022/04/23 09:30:09;;;;;;;;;33.25;31.25;33.10;92.50;;;;;;5078564;28;8799;-65
2022/04/23 09:32:36;;;;;;;;;33.25;29.25;33.10;92.70;;;;;;5078620;28;9859;-65
2022/04/23 09:35:12;;;;;;;;;30.50;28.50;33.20;91.30;;;;;;5078427;28;8765;-64
2022/04/23 09:40:27;;;;;;;;;29.00;24.50;33.10;91.30;;;;;;5039039;28;8740;-65
2022/04/23 09:43:04;;;;;;;;;28.00;25.00;33.20;91.30;;;;;;5038659;28;8744;-65
2022/04/23 09:45:31;;;;;;;;;24.00;22.75;33.30;91.20;;;;;;5038557;28;8794;-65
2022/04/23 09:48:04;;;;;;;;;37.25;30.50;33.20;91.00;;;;;;5038301;28;8780;-65
2022/04/23 09:50:40;;;;;;;;;33.00;31.00;33.20;91.90;;;;;;5030242;28;8759;-64
2022/04/23 09:53:17;;;;;;;;;32.75;29.50;33.30;90.90;;;;;;5036969;28;8760;-64
2022/04/23 09:55:45;;;;;;;;;30.75;28.50;33.20;91.10;;;;;;5038157;28;8780;-64
2022/04/23 09:58:13;;;;;;;;;33.75;29.75;33.20;90.70;;;;;;5037213;28;8745;-65
2022/04/23 10:00:47;;;;;;;;;35.50;30.00;33.10;90.80;;;;;;5037916;28;8787;-64
2022/04/23 10:03:14;;;;;;;;;29.25;27.50;33.00;91.30;;;;;;5041126;28;8799;-65
2022/04/23 10:05:41;;;;;;;;;30.75;29.75;32.90;91.20;;;;;;5038966;28;8764;-64
2022/04/23 10:08:18;;;;;;;;;36.00;31.00;32.90;91.30;;;;;;5037961;28;8757;-65
2022/04/23 10:10:48;;;;;;;;;28.00;26.50;33.00;91.00;;;;;;5038058;28;8804;-65
2022/04/23 10:13:15;;;;;;;;;29.50;25.00;33.00;91.00;;;;;;5038020;28;8788;-65
2022/04/23 10:15:46;;;;;;;;;30.50;30.00;33.00;91.10;;;;;;5021212;28;8777;-65
2022/04/23 10:18:13;;;;;;;;;37.00;29.50;32.90;91.40;;;;;;5037822;28;8827;-65
2022/04/23 10:20:40;;;;;;;;;28.50;25.25;32.80;90.70;;;;;;5036189;28;8752;-65
2022/04/23 10:23:14;;;;;;;;;36.75;32.00;32.80;90.20;;;;;;5020497;28;8761;-65
2022/04/23 10:26:10;;;;;;;;;33.50;29.75;32.80;90.60;;;;;;4999975;28;8747;-65
2022/04/23 10:28:45;;;;;;;;;39.00;31.00;32.60;91.20;;;;;;5036071;28;8757;-65
2022/04/23 10:31:15;;;;;;;;;29.25;26.00;32.70;91.20;;;;;;5017591;28;8751;-65
2022/04/23 10:33:52;;;;;;;;;33.75;26.25;32.70;91.10;;;;;;5017668;28;8793;-65
2022/04/23 10:36:21;;;;;;;;;27.75;27.00;32.70;91.20;;;;;;5018652;28;8810;-64
2022/04/23 10:38:52;;;;;;;;;34.00;29.75;32.60;91.40;;;;;;5045908;28;9418;-65
2022/04/23 10:41:23;;;;;;;;;40.25;32.25;32.60;91.50;;;;;;5036950;28;8801;-64
2022/04/23 10:44:00;;;;;;;;;33.75;30.00;32.60;91.80;;;;;;5057424;28;8766;-65
2022/04/23 10:46:42;;;;;;;;;35.25;30.00;32.50;91.90;;;;;;5037172;28;8764;-65
2022/04/23 10:49:15;;;;;;;;;35.25;30.00;32.60;92.10;;;;;;5037673;28;8768;-65
2022/04/23 10:51:55;;;;;;;;;33.00;29.50;32.50;92.00;;;;;;5037233;28;8760;-65
2022/04/23 10:54:45;;;;;;;;;39.50;30.50;32.50;92.40;;;;;;5036960;28;8784;-64
2022/04/23 10:57:15;;;;;;;;;37.50;31.25;32.50;92.70;;;;;;5035787;28;9210;-65
2022/04/23 10:59:46;;;;;;;;;33.75;30.25;32.40;92.90;;;;;;5037058;28;8757;-65
2022/04/23 11:02:33;;;;;;;;;34.50;31.75;32.40;93.10;;;;;;5035986;28;8763;-65
2022/04/23 11:13:31;;;;;;;;;39.75;34.00;32.00;93.80;;;;;;5056749;28;8790;-64
2022/04/23 11:16:18;;;;;;;;;42.25;34.75;31.90;93.70;;;;;;5057426;28;8924;-65
2022/04/23 11:18:46;;;;;;;;;51.50;39.50;31.90;93.60;;;;;;5056666;28;8818;-65
2022/04/23 11:21:17;;;;;;;;;51.00;39.00;31.90;93.10;;;;;;5056705;28;8767;-65
2022/04/23 11:23:48;;;;;;;;;52.50;42.00;31.80;93.20;;;;;;5056660;28;8885;-65
2022/04/23 11:26:18;;;;;;;;;51.00;40.75;31.90;93.80;;;;;;5039232;28;8836;-65
2022/04/23 11:28:46;;;;;;;;;53.50;39.00;31.80;95.10;;;;;;5056473;28;8823;-65
2022/04/23 11:31:16;;;;;;;;;39.00;33.00;31.90;96.50;;;;;;5039268;28;8751;-65
2022/04/23 11:33:54;;;;;;;;;45.25;35.00;31.80;96.10;;;;;;5038725;28;9310;-65
2022/04/23 11:36:26;;;;;;;;;42.50;33.25;31.80;95.70;;;;;;5056328;28;9412;-65
2022/04/23 11:38:54;;;;;;;;;44.00;34.25;31.80;96.20;;;;;;5056254;28;8844;-65
2022/04/23 11:41:33;;;;;;;;;43.00;33.75;31.70;96.80;;;;;;5055839;28;8790;-65
2022/04/23 11:44:12;;;;;;;;;40.75;34.25;31.70;96.20;;;;;;5056779;28;8778;-65
2022/04/23 11:46:56;;;;;;;;;35.25;32.25;31.70;96.50;;;;;;5056680;28;8770;-65
2022/04/23 11:49:29;;;;;;;;;36.50;33.00;31.70;99.00;;;;;;5061503;28;8767;-64
2022/04/23 11:52:06;;;;;;;;;36.50;32.25;31.60;98.50;;;;;;5043241;28;8774;-65
2022/04/23 11:54:36;;;;;;;;;43.00;34.25;31.60;98.40;;;;;;5060306;28;8761;-65
2022/04/23 11:57:08;;;;;;;;;42.75;35.00;31.60;98.40;;;;;;5060612;28;8763;-65
2022/04/23 11:59:36;;;;;;;;;45.75;37.50;31.60;98.30;;;;;;5042894;28;8843;-65
2022/04/23 12:02:07;;;;;;;;;48.00;37.75;31.50;98.40;;;;;;5042706;28;8819;-65
2022/04/23 12:04:44;;;;;;;;;43.75;35.50;31.40;99.90;;;;;;5059891;28;8820;-64
2022/04/23 12:07:11;;;;;;;;;52.50;40.25;31.40;99.80;;;;;;5060480;28;8971;-65
2022/04/23 12:09:57;;;;;;;;;48.50;38.50;31.50;98.60;;;;;;5059534;28;9831;-65
2022/04/23 12:12:33;;;;;;;;;51.25;38.50;31.50;98.60;;;;;;5059943;28;8782;-64
2022/04/23 12:15:06;;;;;;;;;46.00;37.00;31.50;99.40;;;;;;5043352;28;8830;-65
2022/04/23 12:17:45;;;;;;;;;50.25;40.00;31.40;99.80;;;;;;5059636;28;8747;-65
2022/04/23 12:20:21;;;;;;;;;48.50;40.25;31.50;99.90;;;;;;5044181;28;9430;-64
2022/04/23 12:23:14;;;;;;;;;50.50;41.50;31.40;99.80;;;;;;5059829;28;8755;-64
2022/04/23 12:25:42;;;;;;;;;49.25;39.25;31.40;99.90;;;;;;5056526;28;8803;-65
2022/04/23 12:42:25;;;;;;;;;60.20;44.80;31.10;99.90;;;;;;5039791;28;8748;-64
2022/04/23 12:44:53;;;;;;;;;55.40;44.00;31.10;99.90;;;;;;5039790;28;8809;-65
2022/04/23 12:47:35;;;;;;;;;58.00;46.20;31.10;99.90;;;;;;5038987;28;8788;-63
2022/04/23 12:50:03;;;;;;;;;58.25;44.50;31.10;99.90;;;;;;5039638;28;8775;-65
2022/04/23 12:52:45;;;;;;;;;62.75;49.00;31.10;99.90;;;;;;5026180;28;8778;-64
2022/04/23 12:55:18;;;;;;;;;61.00;47.25;31.00;99.90;;;;;;5020071;28;8767;-65
2022/04/23 12:58:04;;;;;;;;;60.00;46.40;31.10;99.90;;;;;;5019805;28;8793;-64
2022/04/23 13:00:35;;;;;;;;;60.20;48.20;31.00;99.90;;;;;;5017096;28;8893;-65
2022/04/23 13:03:28;;;;;;;;;60.20;47.60;30.90;99.90;;;;;;5019617;28;8795;-64
2022/04/23 13:05:55;;;;;;;;;61.00;48.00;30.90;99.90;;;;;;5019804;28;8877;-65
2022/04/23 13:11:26;;;;;;;;;69.40;52.40;31.00;99.90;;;;;;5038320;28;8760;-64
2022/04/23 13:13:57;;;;;;;;;73.80;54.80;30.90;99.90;;;;;;5038847;28;8850;-64
2022/04/23 13:16:30;;;;;;;;;67.40;53.20;30.90;99.90;;;;;;5059046;28;8861;-64
2022/04/23 13:18:58;;;;;;;;;70.40;53.20;31.00;99.90;;;;;;5054551;28;8771;-65
2022/04/23 13:21:25;;;;;;;;;70.00;54.40;31.00;99.90;;;;;;5038768;28;8782;-64
2022/04/23 13:23:53;;;;;;;;;66.80;51.80;30.90;99.90;;;;;;5038468;28;8750;-65
2022/04/23 13:26:23;;;;;;;;;69.60;52.60;30.70;99.90;;;;;;5038359;28;8868;-64
2022/04/23 13:28:50;;;;;;;;;70.40;55.40;30.60;99.90;;;;;;5038773;28;8758;-65
2022/04/23 13:31:17;;;;;;;;;72.20;57.00;30.40;99.90;;;;;;5038974;28;8749;-63
2022/04/23 13:33:44;;;;;;;;;68.60;52.60;30.30;99.90;;;;;;5038662;28;8749;-65
2022/04/23 13:36:11;;;;;;;;;71.00;54.40;30.40;99.90;;;;;;5038366;28;8777;-65
2022/04/23 13:38:38;;;;;;;;;72.00;55.60;30.30;99.90;;;;;;5028424;28;8792;-65